createdAt,value
2023-01-15T00:00:28.349Z,10.77
2023-01-15T00:05:33.292Z,11.70
2023-01-15T00:10:37.136Z,10.77
2023-01-15T00:15:40.845Z,12.13
2023-01-15T00:20:45.897Z,11.55
2023-01-15T00:26:07.373Z,12.73
2023-01-15T00:31:11.008Z,10.57
2023-01-15T00:36:15.947Z,11.07
2023-01-15T00:41:19.954Z,10.35
2023-01-15T00:46:25.493Z,11.20
2023-01-15T00:51:31.266Z,11.20
2023-01-15T00:56:34.847Z,11.32
2023-01-15T01:01:39.095Z,9.98
2023-01-15T01:06:44.125Z,10.82
2023-01-15T01:11:50.234Z,11.35
2023-01-15T01:16:53.792Z,10.20
2023-01-15T01:21:58.737Z,13.27
2023-01-15T01:27:02.236Z,10.07
2023-01-15T01:32:06.924Z,9.65
2023-01-15T01:37:12.814Z,8.80
2023-01-15T01:42:18.837Z,9.90
2023-01-15T01:47:27.004Z,9.75
2023-01-15T01:52:40.062Z,9.70
2023-01-15T01:57:44.275Z,9.50
2023-01-15T02:02:50.225Z,8.80
2023-01-15T02:07:55.631Z,9.77
2023-01-15T02:13:08.322Z,9.70
2023-01-15T02:18:20.282Z,8.30
2023-01-15T02:24:01.884Z,9.32
2023-01-15T02:29:14.701Z,7.68
2023-01-15T02:34:25.544Z,9.25
2023-01-15T02:39:31.927Z,7.35
2023-01-15T02:44:43.319Z,8.00
2023-01-15T02:49:51.065Z,7.25
2023-01-15T02:55:02.013Z,8.02
2023-01-15T03:00:13.433Z,8.13
2023-01-15T03:05:24.813Z,9.98
2023-01-15T03:10:39.641Z,6.47
2023-01-15T03:16:12.106Z,7.13
2023-01-15T03:21:24.427Z,9.23
2023-01-15T03:26:30.302Z,7.05
2023-01-15T03:31:37.739Z,8.38
2023-01-15T03:36:41.725Z,6.53
2023-01-15T03:42:04.467Z,5.38
2023-01-15T03:47:28.736Z,8.20
2023-01-15T03:52:45.334Z,7.60
2023-01-15T03:57:55.222Z,6.43
2023-01-15T04:03:04.804Z,6.47
2023-01-15T04:08:11.021Z,6.15
2023-01-15T04:13:14.793Z,4.97
2023-01-15T04:18:22.745Z,6.70
2023-01-15T04:23:26.391Z,6.85
2023-01-15T04:28:29.971Z,6.50
2023-01-15T04:33:36.850Z,6.50
2023-01-15T04:38:40.321Z,6.83
2023-01-15T04:44:01.491Z,6.45
2023-01-15T04:49:08.980Z,6.53
2023-01-15T04:54:16.559Z,5.55
2023-01-15T04:59:23.555Z,5.72
2023-01-15T05:04:28.593Z,5.80
2023-01-15T05:09:32.375Z,5.22
2023-01-15T05:14:35.969Z,8.88
2023-01-15T05:19:41.409Z,4.13
2023-01-15T05:24:45.015Z,6.32
2023-01-15T05:29:48.737Z,3.90
2023-01-15T05:34:53.646Z,5.38
2023-01-15T05:39:57.242Z,6.57
2023-01-15T05:45:00.927Z,5.63
2023-01-15T05:50:07.973Z,4.50
2023-01-15T05:55:11.658Z,5.17
2023-01-15T06:00:17.247Z,4.63
2023-01-15T06:05:22.230Z,4.63
2023-01-15T06:10:25.725Z,5.07
2023-01-15T06:15:29.245Z,6.18
2023-01-15T06:20:36.712Z,4.10
2023-01-15T06:25:40.371Z,3.60
2023-01-15T06:30:43.900Z,3.72
2023-01-15T06:35:48.925Z,3.88
2023-01-15T06:40:52.421Z,4.80
2023-01-15T06:46:21.984Z,3.83
2023-01-15T06:51:27.079Z,4.38
2023-01-15T06:56:30.644Z,4.35
2023-01-15T07:01:34.203Z,4.28
2023-01-15T07:06:39.463Z,4.88
2023-01-15T07:11:50.251Z,3.60
2023-01-15T07:16:54.228Z,3.88
2023-01-15T07:21:59.467Z,3.42
2023-01-15T07:27:03.545Z,3.80
2023-01-15T07:32:07.798Z,4.85
2023-01-15T07:37:12.983Z,4.30
2023-01-15T07:42:34.110Z,3.15
2023-01-15T07:47:55.177Z,4.13
2023-01-15T07:53:00.183Z,3.33
2023-01-15T07:58:05.038Z,4.45
2023-01-15T08:03:09.304Z,6.00
2023-01-15T08:08:17.990Z,3.28
2023-01-15T08:13:39.069Z,6.07
2023-01-15T08:18:42.709Z,4.93
2023-01-15T08:23:47.677Z,5.63
2023-01-15T08:28:51.225Z,3.70
2023-01-15T08:33:54.771Z,5.15
2023-01-15T08:38:59.702Z,5.32
2023-01-15T08:44:03.493Z,3.60
2023-01-15T08:49:07.060Z,4.68
2023-01-15T08:54:12.187Z,7.65
2023-01-15T08:59:15.947Z,3.13
2023-01-15T09:04:22.592Z,8.45
2023-01-15T09:09:27.485Z,7.95
2023-01-15T09:14:56.917Z,5.60
2023-01-15T09:19:55.185Z,3.47
2023-01-15T09:25:00.649Z,6.15
2023-01-15T09:30:04.885Z,7.28
2023-01-15T09:35:10.173Z,5.05
2023-01-15T09:40:49.201Z,5.38
2023-01-15T09:46:00.339Z,4.32
2023-01-15T09:51:20.118Z,4.40
2023-01-15T09:56:29.732Z,4.00
2023-01-15T10:01:34.983Z,4.38
2023-01-15T10:06:46.098Z,5.65
2023-01-15T10:12:18.079Z,4.28
2023-01-15T10:17:28.523Z,2.67
2023-01-15T10:22:59.499Z,3.40
2023-01-15T10:28:20.841Z,3.60
2023-01-15T10:33:56.268Z,5.10
2023-01-15T10:39:07.478Z,3.22
2023-01-15T10:44:19.508Z,2.80
2023-01-15T10:49:23.071Z,3.53
2023-01-15T10:54:33.293Z,4.40
2023-01-15T10:59:47.619Z,3.65
2023-01-15T11:04:51.273Z,4.93
2023-01-15T11:09:55.143Z,8.15
2023-01-15T11:15:17.477Z,8.13
2023-01-15T11:20:31.992Z,5.82
2023-01-15T11:25:35.697Z,4.72
2023-01-15T11:30:41.887Z,5.95
2023-01-15T11:35:57.248Z,4.57
2023-01-15T11:41:05.402Z,4.93
2023-01-15T11:46:48.994Z,4.90
2023-01-15T11:51:52.603Z,3.70
2023-01-15T11:56:57.598Z,4.28
2023-01-15T12:02:07.546Z,6.18
2023-01-15T12:07:16.003Z,4.25
2023-01-15T12:12:31.082Z,4.97
2023-01-15T12:18:23.392Z,8.30
2023-01-15T12:23:54.373Z,7.60
2023-01-15T12:29:10.585Z,8.45
2023-01-15T12:34:24.268Z,6.60
2023-01-15T12:39:33.738Z,8.20
2023-01-15T12:45:12.485Z,7.20
2023-01-15T12:50:34.263Z,6.05
2023-01-15T12:55:43.248Z,7.13
2023-01-15T13:00:47.773Z,7.88
2023-01-15T13:05:57.807Z,6.45
2023-01-15T13:11:01.669Z,5.28
2023-01-15T13:16:18.035Z,6.00
2023-01-15T13:21:26.000Z,5.32
2023-01-15T13:27:23.294Z,5.63
2023-01-15T13:32:30.459Z,5.20
2023-01-15T13:37:43.432Z,5.80
2023-01-15T13:42:49.948Z,6.57
2023-01-15T13:47:57.847Z,6.13
2023-01-15T13:58:29.329Z,4.80
2023-01-15T14:03:36.293Z,5.00
2023-01-15T14:08:44.838Z,4.43
2023-01-15T14:14:25.990Z,5.57
2023-01-15T14:20:00.129Z,5.68
2023-01-15T14:25:41.401Z,5.55
2023-01-15T14:31:22.846Z,4.65
2023-01-15T14:36:39.014Z,4.75
2023-01-15T14:41:59.066Z,4.60
2023-01-15T14:47:06.619Z,4.40
2023-01-15T14:52:10.848Z,5.10
2023-01-15T14:57:17.556Z,4.90
2023-01-15T15:02:31.553Z,4.23
2023-01-15T15:07:42.196Z,3.92
2023-01-15T15:12:56.467Z,5.10
2023-01-15T15:18:07.738Z,4.35
2023-01-15T15:23:20.055Z,6.07
2023-01-15T15:28:25.208Z,5.57
2023-01-15T15:33:38.604Z,3.67
2023-01-15T15:38:46.072Z,5.43
2023-01-15T15:44:14.672Z,3.95
2023-01-15T15:49:20.074Z,4.45
2023-01-15T15:54:27.873Z,3.22
2023-01-15T15:59:36.582Z,4.00
2023-01-15T16:04:46.767Z,5.13
2023-01-15T16:09:53.945Z,5.60
2023-01-15T16:15:00.214Z,17.63
2023-01-15T16:20:03.886Z,18.52
2023-01-15T16:25:24.356Z,13.73
2023-01-15T16:30:33.990Z,9.20
2023-01-15T16:35:38.488Z,11.40
2023-01-15T16:40:47.943Z,10.90
2023-01-15T16:46:06.028Z,10.10
2023-01-15T16:51:35.751Z,8.68
2023-01-15T16:56:55.335Z,11.32
2023-01-15T17:02:12.224Z,8.15
2023-01-15T17:07:23.915Z,11.38
2023-01-15T17:12:34.391Z,8.07
2023-01-15T17:17:39.527Z,8.68
2023-01-15T17:22:47.007Z,7.70
2023-01-15T17:27:50.711Z,5.82
2023-01-15T17:32:55.721Z,14.68
2023-01-15T17:37:59.411Z,16.08
2023-01-15T17:43:03.859Z,11.57
2023-01-15T17:48:09.915Z,10.70
2023-01-15T17:53:13.555Z,9.30
2023-01-15T17:58:35.962Z,8.27
2023-01-15T18:04:09.545Z,8.90
2023-01-15T18:09:14.075Z,8.30
2023-01-15T18:14:17.792Z,6.60
2023-01-15T18:19:22.781Z,5.88
2023-01-15T18:24:26.414Z,7.95
2023-01-15T18:29:30.188Z,5.45
2023-01-15T18:34:35.279Z,6.00
2023-01-15T18:39:38.838Z,4.95
2023-01-15T18:44:59.829Z,6.90
2023-01-15T18:50:04.888Z,6.13
2023-01-15T18:55:09.691Z,4.93
2023-01-15T19:00:14.772Z,5.35
2023-01-15T19:05:20.923Z,5.45
2023-01-15T19:10:24.745Z,5.95
2023-01-15T19:15:48.269Z,5.28
2023-01-15T19:20:53.422Z,6.90
2023-01-15T19:25:56.982Z,4.53
2023-01-15T19:31:18.175Z,6.35
2023-01-15T19:36:23.497Z,6.47
2023-01-15T19:41:44.958Z,6.68
2023-01-15T19:47:06.350Z,7.00
2023-01-15T19:52:29.312Z,6.18
2023-01-15T19:57:38.363Z,6.35
2023-01-15T20:02:42.442Z,6.07
2023-01-15T20:07:50.327Z,8.07
2023-01-15T20:18:17.012Z,7.10
2023-01-15T20:23:22.405Z,8.05
2023-01-15T20:28:26.093Z,8.68
2023-01-15T20:33:29.830Z,7.75
2023-01-15T20:38:34.845Z,8.48
2023-01-15T20:43:56.211Z,7.65
2023-01-15T20:49:17.231Z,7.80
2023-01-15T20:54:26.495Z,8.02
2023-01-15T20:59:30.382Z,7.50
2023-01-15T21:04:34.539Z,7.55
2023-01-15T21:09:39.730Z,7.53
2023-01-15T21:14:46.231Z,7.30
2023-01-15T21:19:49.834Z,6.93
2023-01-15T21:24:54.774Z,8.02
2023-01-15T21:29:58.326Z,7.72
2023-01-15T21:35:01.981Z,7.88
2023-01-15T21:40:09.956Z,6.68
2023-01-15T21:45:13.599Z,6.85
2023-01-15T21:50:20.442Z,7.18
2023-01-15T21:55:25.748Z,7.95
2023-01-15T22:00:29.471Z,6.68
2023-01-15T22:05:34.560Z,6.47
2023-01-15T22:10:39.951Z,7.00
2023-01-15T22:15:43.854Z,8.02
2023-01-15T22:20:58.290Z,6.80
2023-01-15T22:26:03.689Z,7.03
2023-01-15T22:31:08.225Z,7.55
2023-01-15T22:36:13.974Z,7.45
2023-01-15T22:41:40.531Z,7.57
2023-01-15T22:46:45.003Z,7.70
2023-01-15T22:51:49.063Z,6.00
2023-01-15T22:56:54.139Z,6.55
2023-01-15T23:01:57.880Z,6.63
2023-01-15T23:07:02.012Z,7.78
2023-01-15T23:12:07.607Z,15.75
2023-01-15T23:17:11.187Z,11.35
2023-01-15T23:22:14.888Z,13.48
2023-01-15T23:27:20.114Z,13.30
2023-01-15T23:32:23.878Z,13.65
2023-01-15T23:37:27.769Z,13.40
2023-01-15T23:42:50.447Z,11.18
2023-01-15T23:47:56.362Z,10.55
2023-01-15T23:53:01.579Z,10.73
2023-01-15T23:58:06.503Z,10.77
